CheckWX is a tool to help pilots better visualize weather data.  It is not intended as a substitute for an official pre-flight weather briefing.

19:59:21 UTC

KSNL METAR
Shawnee Regional Airport
Shawnee, Oklahoma, USA
Current

24 mins ago

KSNL 261935Z AUTO 17011KT 10SM SCT035 SCT043 28/19 A3005 RMK AO2 T02770193
Observed
May-26 @ 19:35 UTC
Wind
  • 170° at 11 KTS
Visibility
10 SM
Flight Rules
VFR
Cloud Levels
  • Scattered at 3,500' AGL
  • Scattered at 4,300' AGL
Temperature
28°C / 82°F
Dewpoint
19°C / 66°F
Heat Index
29°C / 84°F
Humidity
58%
Altimeter
30.05" Hg
Pressure
1017.62 hPa
Previous

44 mins ago

KSNL 261915Z AUTO 17012G16KT 10SM SCT035 28/20 A3005 RMK AO2 T02790195
Observed
May-26 @ 19:15 UTC
Wind
  • 170° at 12 KTS
  • Gusting to 16 KTS
Visibility
10 SM
Flight Rules
VFR
Cloud Levels
  • Scattered at 3,500' AGL
Temperature
28°C / 82°F
Dewpoint
20°C / 68°F
Heat Index
29°C / 85°F
Humidity
62%
Altimeter
30.05" Hg
Pressure
1017.62 hPa
Previous

1 hour ago

KSNL 261855Z AUTO 17011G16KT 10SM BKN035 27/19 A3006 RMK AO2 T02740189
Observed
May-26 @ 18:55 UTC
Wind
  • 170° at 11 KTS
  • Gusting to 16 KTS
Visibility
10 SM
Flight Rules
VFR
Cloud Levels
  • Broken at 3,500' AGL
Temperature
27°C / 81°F
Dewpoint
19°C / 66°F
Heat Index
28°C / 83°F
Humidity
62%
Altimeter
30.06" Hg
Pressure
1017.92 hPa